MSC Bari — A8YD3 — position and weather

sailwx.info

Track history (hours):
 
Tides and Currents Weather Stations Pressure Air Temp Water Temp Dewpoint Dewpoint Depression Visibility Wind Speed Wind Dir Waves Ship Positions

MSC Bari

Last reported at 2016-Aug-26 04:33 UTC. Time now 2016-Aug-27 16:58 UTC.
Position N 01°11' E 103°38'.

Length 366 m; draft 15.4 m.

Type: Ship (hazmat cat A). MMSI: 636092188.

Date/timePositionNaut miles runAvg speedWind from/ knotsBaromVisibWave heightAir tempDewpointWater temp
2016-Aug-26 04:33N 01°11' E 103°38'1010.4
2016-Aug-26 03:33N 01°12' E 103°49'6 5.9
2016-Aug-26 02:33N 01°16' E 103°46'0 0.1
2016-Aug-26 01:33N 01°17' E 103°46'0 0.0
2016-Aug-26 00:30N 01°17' E 103°46'0 0.0
2016-Aug-25 23:29N 01°17' E 103°46'0 0.0
2016-Aug-25 22:32N 01°17' E 103°46'0 0.0
2016-Aug-25 21:26N 01°17' E 103°46'0 0.0
2016-Aug-25 20:29N 01°17' E 103°46'0 0.0
2016-Aug-25 19:32N 01°17' E 103°46'0 0.0
2016-Aug-25 18:29N 01°17' E 103°46'0 0.0
2016-Aug-25 17:33N 01°17' E 103°46'0 0.0
2016-Aug-25 16:33N 01°17' E 103°46'0 0.0
2016-Aug-25 15:33N 01°16' E 103°46'0 0.0
2016-Aug-25 14:32N 01°17' E 103°46'0 0.0
2016-Aug-25 13:23N 01°17' E 103°46'0 0.0
2016-Aug-25 12:23N 01°17' E 103°46'0 0.0
2016-Aug-25 11:29N 01°17' E 103°46'0 0.0
2016-Aug-25 10:32N 01°17' E 103°46'0 0.0
2016-Aug-25 09:29N 01°17' E 103°46'0 0.0
2016-Aug-25 08:29N 01°17' E 103°46'0 0.0
2016-Aug-25 07:29N 01°17' E 103°46'0 0.0
2016-Aug-25 06:32N 01°17' E 103°46'0 0.1
2016-Aug-25 04:34N 01°16' E 103°45'9 8.7
2016-Aug-25 03:33N 01°14' E 103°54'8 7.9
2016-Aug-25 02:33N 01°16' E 104°01'  
2016-Aug-22 01:30N 22°06' E 114°22'3311.3
2016-Aug-21 22:33N 22°26' E 113°53'2 1.9
2016-Aug-21 21:30N 22°28' E 113°53'0 0.0
2016-Aug-21 20:30N 22°28' E 113°53'0 0.0
2016-Aug-21 19:30N 22°28' E 113°53'0 0.0
2016-Aug-21 15:12N 22°28' E 113°53'0 0.0
2016-Aug-21 14:30N 22°28' E 113°53'0 0.0
2016-Aug-21 12:18N 22°28' E 113°53'0 0.0
2016-Aug-21 10:18N 22°28' E 113°53'0 0.0
2016-Aug-21 09:24N 22°28' E 113°53'0 0.0
2016-Aug-21 08:30N 22°28' E 113°53'0 0.0
2016-Aug-21 07:30N 22°28' E 113°53'0 0.0
2016-Aug-21 06:18N 22°28' E 113°53'2 2.8
2016-Aug-21 05:33N 22°26' E 113°53'10 7.4
2016-Aug-21 04:15N 22°21' E 114°02'21 7.8
2016-Aug-21 01:34N 22°08' E 114°20'1511.7
2016-Aug-21 00:18N 22°10' E 114°36'11813.1
2016-Aug-20 15:15N 22°41' E 116°39'913.2
2016-Aug-20 14:34N 22°46' E 116°47'7913.1
2016-Aug-20 08:33N 23°35' E 117°54'1413.1
2016-Aug-20 07:30N 23°43' E 118°06'1313.2
2016-Aug-20 06:33N 23°53' E 118°14'1313.2
2016-Aug-20 05:33N 24°06' E 118°20'1111.4
2016-Aug-20 04:33N 24°16' E 118°14'9 9.2
2016-Aug-20 03:33N 24°23' E 118°08'7 6.9
2016-Aug-20 02:32N 24°27' E 118°01'0 0.0
2016-Aug-20 01:32N 24°27' E 118°01'0 0.0
2016-Aug-20 00:32N 24°27' E 118°01'0 0.0
2016-Aug-19 23:32N 24°27' E 118°01'0 0.0
2016-Aug-19 22:32N 24°27' E 118°01'0 0.0
2016-Aug-19 21:32N 24°27' E 118°01'0 0.0
2016-Aug-19 20:32N 24°27' E 118°01'0 0.0
2016-Aug-19 19:32N 24°27' E 118°01'0 0.0
2016-Aug-19 18:29N 24°27' E 118°01'0 0.0
2016-Aug-19 17:32N 24°27' E 118°01'0 0.0
2016-Aug-19 16:32N 24°27' E 118°01'0 0.0
2016-Aug-19 15:29N 24°27' E 118°01'0 0.0
2016-Aug-19 14:32N 24°27' E 118°01'0 0.0
2016-Aug-19 13:29N 24°27' E 118°01'1 1.4
2016-Aug-19 12:33N 24°26' E 118°02'8 8.3
2016-Aug-19 11:33N 24°21' E 118°09'9 8.5
2016-Aug-19 10:33N 24°15' E 118°16'1312.7
2016-Aug-19 09:33N 24°11' E 118°29'1816.3
2016-Aug-19 08:26N 24°17' E 118°48'1416.2
2016-Aug-19 07:33N 24°25' E 119°01'1716.6
2016-Aug-19 06:31N 24°33' E 119°18'33016.2
2016-Aug-18 10:12N 29°12' E 122°36'2715.7
2016-Aug-18 08:29N 29°38' E 122°27'1313.9
2016-Aug-18 07:33N 29°47' E 122°16'1212.5
2016-Aug-18 06:34N 29°55' E 122°05'3 2.8
2016-Aug-18 05:29N 29°54' E 122°02'0 0.0
2016-Aug-18 00:26N 29°54' E 122°02'0 0.0
2016-Aug-17 23:20N 29°54' E 122°02'0 0.0
2016-Aug-17 22:23N 29°54' E 122°02'0 0.0
2016-Aug-17 20:26N 29°54' E 122°02'0 0.0
2016-Aug-17 19:14N 29°54' E 122°02'0 0.0
2016-Aug-17 16:26N 29°54' E 122°02'0 0.0
2016-Aug-17 15:20N 29°54' E 122°02'0 0.0
2016-Aug-17 13:08N 29°54' E 122°02'0 0.0
2016-Aug-17 11:27N 29°54' E 122°02'2 2.1
2016-Aug-17 10:33N 29°55' E 122°04'8 7.7
2016-Aug-17 09:33N 29°51' E 122°12'9 9.5
2016-Aug-17 08:33N 29°45' E 122°20'6 2.4
2016-Aug-17 06:05N 29°45' E 122°27'0 0.1
2016-Aug-17 05:29N 29°45' E 122°27'0 0.0
2016-Aug-17 04:17N 29°45' E 122°27'0 0.1
2016-Aug-17 01:08N 29°45' E 122°26'0 0.0
2016-Aug-17 00:05N 29°45' E 122°26'0 0.2
2016-Aug-16 23:18N 29°45' E 122°27'6 7.9
2016-Aug-16 22:33N 29°42' E 122°32'1211.6
2016-Aug-16 21:32N 29°46' E 122°45'1212.3
2016-Aug-16 20:32N 29°53' E 122°57'2510.4
2016-Aug-16 18:05N 30°19' E 122°59'612.1
2016-Aug-16 17:33N 30°23' E 122°53'1211.7
2016-Aug-16 16:33N 30°29' E 122°41'1212.3
2016-Aug-16 15:33N 30°31' E 122°27'  
Track history (hours):
 
Tides and Currents Weather Stations Pressure Air Temp Water Temp Dewpoint Dewpoint Depression Visibility Wind Speed Wind Dir Waves Ship Positions

MSC Bari

Last reported at 2016-Aug-26 04:33 UTC. Time now 2016-Aug-27 16:58 UTC.
Position N 01°11' E 103°38'.

Length 366 m; draft 15.4 m.

Type: Ship (hazmat cat A). MMSI: 636092188.

Date/timePositionNaut miles runAvg speedWind from/ knotsBaromVisibWave heightAir tempDewpointWater temp
2016-Aug-26 04:33N 01°11' E 103°38'1010.4
2016-Aug-26 03:33N 01°12' E 103°49'6 5.9
2016-Aug-26 02:33N 01°16' E 103°46'0 0.1
2016-Aug-26 01:33N 01°17' E 103°46'0 0.0
2016-Aug-26 00:30N 01°17' E 103°46'0 0.0
2016-Aug-25 23:29N 01°17' E 103°46'0 0.0
2016-Aug-25 22:32N 01°17' E 103°46'0 0.0
2016-Aug-25 21:26N 01°17' E 103°46'0 0.0
2016-Aug-25 20:29N 01°17' E 103°46'0 0.0
2016-Aug-25 19:32N 01°17' E 103°46'0 0.0
2016-Aug-25 18:29N 01°17' E 103°46'0 0.0
2016-Aug-25 17:33N 01°17' E 103°46'0 0.0
2016-Aug-25 16:33N 01°17' E 103°46'0 0.0
2016-Aug-25 15:33N 01°16' E 103°46'0 0.0
2016-Aug-25 14:32N 01°17' E 103°46'0 0.0
2016-Aug-25 13:23N 01°17' E 103°46'0 0.0
2016-Aug-25 12:23N 01°17' E 103°46'0 0.0
2016-Aug-25 11:29N 01°17' E 103°46'0 0.0
2016-Aug-25 10:32N 01°17' E 103°46'0 0.0
2016-Aug-25 09:29N 01°17' E 103°46'0 0.0
2016-Aug-25 08:29N 01°17' E 103°46'0 0.0
2016-Aug-25 07:29N 01°17' E 103°46'0 0.0
2016-Aug-25 06:32N 01°17' E 103°46'0 0.1
2016-Aug-25 04:34N 01°16' E 103°45'9 8.7
2016-Aug-25 03:33N 01°14' E 103°54'8 7.9
2016-Aug-25 02:33N 01°16' E 104°01'  
2016-Aug-22 01:30N 22°06' E 114°22'3311.3
2016-Aug-21 22:33N 22°26' E 113°53'2 1.9
2016-Aug-21 21:30N 22°28' E 113°53'0 0.0
2016-Aug-21 20:30N 22°28' E 113°53'0 0.0
2016-Aug-21 19:30N 22°28' E 113°53'0 0.0
2016-Aug-21 15:12N 22°28' E 113°53'0 0.0
2016-Aug-21 14:30N 22°28' E 113°53'0 0.0
2016-Aug-21 12:18N 22°28' E 113°53'0 0.0
2016-Aug-21 10:18N 22°28' E 113°53'0 0.0
2016-Aug-21 09:24N 22°28' E 113°53'0 0.0
2016-Aug-21 08:30N 22°28' E 113°53'0 0.0
2016-Aug-21 07:30N 22°28' E 113°53'0 0.0
2016-Aug-21 06:18N 22°28' E 113°53'2 2.8
2016-Aug-21 05:33N 22°26' E 113°53'10 7.4
2016-Aug-21 04:15N 22°21' E 114°02'21 7.8
2016-Aug-21 01:34N 22°08' E 114°20'1511.7
2016-Aug-21 00:18N 22°10' E 114°36'11813.1
2016-Aug-20 15:15N 22°41' E 116°39'913.2
2016-Aug-20 14:34N 22°46' E 116°47'7913.1
2016-Aug-20 08:33N 23°35' E 117°54'1413.1
2016-Aug-20 07:30N 23°43' E 118°06'1313.2
2016-Aug-20 06:33N 23°53' E 118°14'1313.2
2016-Aug-20 05:33N 24°06' E 118°20'1111.4
2016-Aug-20 04:33N 24°16' E 118°14'9 9.2
2016-Aug-20 03:33N 24°23' E 118°08'7 6.9
2016-Aug-20 02:32N 24°27' E 118°01'0 0.0
2016-Aug-20 01:32N 24°27' E 118°01'0 0.0
2016-Aug-20 00:32N 24°27' E 118°01'0 0.0
2016-Aug-19 23:32N 24°27' E 118°01'0 0.0
2016-Aug-19 22:32N 24°27' E 118°01'0 0.0
2016-Aug-19 21:32N 24°27' E 118°01'0 0.0
2016-Aug-19 20:32N 24°27' E 118°01'0 0.0
2016-Aug-19 19:32N 24°27' E 118°01'0 0.0
2016-Aug-19 18:29N 24°27' E 118°01'0 0.0
2016-Aug-19 17:32N 24°27' E 118°01'0 0.0
2016-Aug-19 16:32N 24°27' E 118°01'0 0.0
2016-Aug-19 15:29N 24°27' E 118°01'0 0.0
2016-Aug-19 14:32N 24°27' E 118°01'0 0.0
2016-Aug-19 13:29N 24°27' E 118°01'1 1.4
2016-Aug-19 12:33N 24°26' E 118°02'8 8.3
2016-Aug-19 11:33N 24°21' E 118°09'9 8.5
2016-Aug-19 10:33N 24°15' E 118°16'1312.7
2016-Aug-19 09:33N 24°11' E 118°29'1816.3
2016-Aug-19 08:26N 24°17' E 118°48'1416.2
2016-Aug-19 07:33N 24°25' E 119°01'1716.6
2016-Aug-19 06:31N 24°33' E 119°18'33016.2
2016-Aug-18 10:12N 29°12' E 122°36'2715.7
2016-Aug-18 08:29N 29°38' E 122°27'1313.9
2016-Aug-18 07:33N 29°47' E 122°16'1212.5
2016-Aug-18 06:34N 29°55' E 122°05'3 2.8
2016-Aug-18 05:29N 29°54' E 122°02'0 0.0
2016-Aug-18 00:26N 29°54' E 122°02'0 0.0
2016-Aug-17 23:20N 29°54' E 122°02'0 0.0
2016-Aug-17 22:23N 29°54' E 122°02'0 0.0
2016-Aug-17 20:26N 29°54' E 122°02'0 0.0
2016-Aug-17 19:14N 29°54' E 122°02'0 0.0
2016-Aug-17 16:26N 29°54' E 122°02'0 0.0
2016-Aug-17 15:20N 29°54' E 122°02'0 0.0
2016-Aug-17 13:08N 29°54' E 122°02'0 0.0
2016-Aug-17 11:27N 29°54' E 122°02'2 2.1
2016-Aug-17 10:33N 29°55' E 122°04'8 7.7
2016-Aug-17 09:33N 29°51' E 122°12'9 9.5
2016-Aug-17 08:33N 29°45' E 122°20'6 2.4
2016-Aug-17 06:05N 29°45' E 122°27'0 0.1
2016-Aug-17 05:29N 29°45' E 122°27'0 0.0
2016-Aug-17 04:17N 29°45' E 122°27'0 0.1
2016-Aug-17 01:08N 29°45' E 122°26'0 0.0
2016-Aug-17 00:05N 29°45' E 122°26'0 0.2
2016-Aug-16 23:18N 29°45' E 122°27'6 7.9
2016-Aug-16 22:33N 29°42' E 122°32'1211.6
2016-Aug-16 21:32N 29°46' E 122°45'1212.3
2016-Aug-16 20:32N 29°53' E 122°57'2510.4
2016-Aug-16 18:05N 30°19' E 122°59'612.1
2016-Aug-16 17:33N 30°23' E 122°53'1211.7
2016-Aug-16 16:33N 30°29' E 122°41'1212.3
2016-Aug-16 15:33N 30°31' E 122°27'  

Dump ship's entire track history